Time;durP1;ratioP1;P1;durP2;ratioP2;P2;SDS_P1;SDS_P2;PMS_P1;PMS_P2;Temp;Humidity;BMP_temperature;BMP_pressure;BME280_temperature;BME280_humidity;BME280_pressure;Samples;Min_cycle;Max_cycle;Signal;HPM_P1;HPM_P2
2022/03/20 00:02:03;;;;;;;6.47;4.07;;;5.50;99.90;;;;;;5065593;28;20376;-78
2022/03/20 00:04:29;;;;;;;8.68;4.03;;;5.50;99.90;;;;;;5068153;28;20067;-81
2022/03/20 00:06:56;;;;;;;6.38;4.10;;;5.40;99.90;;;;;;5050078;28;20118;-78
2022/03/20 00:09:22;;;;;;;8.27;3.90;;;5.40;99.90;;;;;;5067749;28;20029;-77
2022/03/20 00:11:51;;;;;;;6.47;4.35;;;4.80;99.90;;;;;;5050268;28;20048;-78
2022/03/20 00:14:16;;;;;;;10.95;4.43;;;5.00;99.90;;;;;;5066481;28;20044;-78
2022/03/20 00:16:42;;;;;;;7.50;4.07;;;4.80;99.90;;;;;;5016849;28;20518;-78
2022/03/20 00:19:07;;;;;;;7.68;4.18;;;7.10;99.90;;;;;;5065824;28;20392;-78
2022/03/20 00:21:33;;;;;;;8.02;3.72;;;5.00;99.90;;;;;;5049861;28;20412;-78
2022/03/20 00:24:00;;;;;;;8.60;4.35;;;7.20;99.90;;;;;;5064937;28;20076;-78
2022/03/20 00:26:26;;;;;;;5.95;4.07;;;4.70;99.90;;;;;;5049913;28;20036;-78
2022/03/20 00:28:51;;;;;;;7.70;3.72;;;5.20;99.90;;;;;;5049424;28;20044;-79
2022/03/20 00:31:17;;;;;;;10.80;4.63;;;7.20;99.90;;;;;;5066347;28;20118;-77
2022/03/20 00:33:42;;;;;;;5.55;3.67;;;4.70;99.90;;;;;;5035241;28;20097;-78
2022/03/20 00:36:08;;;;;;;9.70;5.78;;;4.80;99.90;;;;;;5069230;28;20048;-77
2022/03/20 00:38:34;;;;;;;8.98;5.28;;;5.10;99.90;;;;;;5072064;28;20025;-77
2022/03/20 00:40:59;;;;;;;5.72;3.90;;;4.40;99.90;;;;;;5053316;28;20048;-77
2022/03/20 00:43:25;;;;;;;6.10;4.18;;;5.50;99.90;;;;;;5053062;28;20028;-77
2022/03/20 00:45:51;;;;;;;6.05;3.88;;;4.70;99.90;;;;;;5053477;28;20131;-78
2022/03/20 00:48:16;;;;;;;9.52;4.53;;;5.00;99.90;;;;;;5070249;28;20042;-77
2022/03/20 00:50:42;;;;;;;13.07;5.18;;;4.70;99.90;;;;;;5069501;28;20048;-77
2022/03/20 00:53:07;;;;;;;6.68;4.88;;;4.80;99.90;;;;;;5070935;28;20103;-78
2022/03/20 00:55:33;;;;;;;7.55;4.47;;;4.50;99.90;;;;;;5071627;28;20037;-77
2022/03/20 00:57:59;;;;;;;8.13;4.45;;;4.90;99.90;;;;;;5052962;28;20076;-81
2022/03/20 01:00:25;;;;;;;8.75;4.28;;;6.30;99.90;;;;;;5053865;28;20530;-82
2022/03/20 01:02:51;;;;;;;11.43;5.53;;;4.60;99.90;;;;;;5069822;28;20480;-77
2022/03/20 01:05:17;;;;;;;8.77;4.50;;;4.80;99.90;;;;;;5052496;28;20040;-80
2022/03/20 01:07:43;;;;;;;10.25;4.10;;;6.50;99.90;;;;;;5036756;28;20136;-77
2022/03/20 01:10:10;;;;;;;10.77;4.25;;;4.80;99.90;;;;;;5071355;28;20040;-77
2022/03/20 01:12:38;;;;;;;12.02;4.80;;;4.80;99.90;;;;;;5052600;28;20415;-77
2022/03/20 01:15:06;;;;;;;7.13;4.03;;;5.70;99.90;;;;;;5069321;28;20115;-77
2022/03/20 01:17:32;;;;;;;8.48;4.95;;;4.70;99.90;;;;;;5037010;28;20040;-77
2022/03/20 01:19:57;;;;;;;9.95;4.68;;;4.60;99.90;;;;;;5068518;28;20055;-81
2022/03/20 01:22:23;;;;;;;7.65;4.68;;;4.50;99.90;;;;;;5069564;28;20052;-78
2022/03/20 01:24:49;;;;;;;8.07;4.75;;;4.50;99.90;;;;;;5052862;28;20036;-78
2022/03/20 01:27:15;;;;;;;10.55;5.70;;;4.00;99.90;;;;;;5052254;28;20055;-80
2022/03/20 01:29:41;;;;;;;9.38;4.60;;;4.50;99.90;;;;;;5069862;28;20040;-78
2022/03/20 01:32:08;;;;;;;8.73;4.88;;;4.00;99.90;;;;;;5069688;28;20057;-78
2022/03/20 01:34:34;;;;;;;9.20;5.35;;;4.40;99.90;;;;;;5069391;28;20041;-78
2022/03/20 01:36:59;;;;;;;8.25;4.80;;;4.00;99.90;;;;;;5052451;28;20052;-78
2022/03/20 01:39:25;;;;;;;9.60;5.22;;;4.30;99.90;;;;;;5070347;28;20032;-78
2022/03/20 01:41:50;;;;;;;9.10;4.95;;;3.90;99.90;;;;;;5052571;28;20040;-81
2022/03/20 01:44:16;;;;;;;8.88;5.32;;;3.90;99.90;;;;;;5068967;28;20036;-78
2022/03/20 01:46:42;;;;;;;9.65;5.10;;;4.10;99.90;;;;;;5070388;28;20376;-79
2022/03/20 01:49:07;;;;;;;7.78;5.38;;;4.40;99.90;;;;;;5068567;28;20123;-78
2022/03/20 01:54:20;;;;;;;11.50;5.03;;;5.40;99.90;;;;;;5061703;28;20103;-78
2022/03/20 01:56:49;;;;;;;12.05;5.88;;;4.30;99.90;;;;;;5052669;28;20063;-80
2022/03/20 01:59:16;;;;;;;8.93;5.20;;;4.10;99.90;;;;;;5044289;28;20044;-78
2022/03/20 02:01:42;;;;;;;8.68;5.70;;;5.30;99.90;;;;;;5069792;28;20078;-79
2022/03/20 02:04:14;;;;;;;8.93;4.97;;;4.10;99.90;;;;;;5051662;28;20033;-78
2022/03/20 02:06:44;;;;;;;8.95;5.28;;;4.30;99.90;;;;;;5052298;28;20040;-82
2022/03/20 02:09:10;;;;;;;10.05;5.72;;;3.90;99.90;;;;;;5069671;28;20048;-78
2022/03/20 02:11:36;;;;;;;7.43;5.07;;;3.90;99.90;;;;;;5069105;28;20036;-79
2022/03/20 02:14:04;;;;;;;13.85;5.40;;;3.80;99.90;;;;;;5067965;28;20047;-79
2022/03/20 02:16:29;;;;;;;7.22;5.03;;;3.90;99.90;;;;;;5035178;28;20090;-80
2022/03/20 02:18:55;;;;;;;9.18;5.78;;;3.80;99.90;;;;;;5068653;28;20040;-78
2022/03/20 02:21:50;;;;;;;11.57;6.30;;;3.80;99.90;;;;;;5067935;28;20505;-78
2022/03/20 02:24:41;;;;;;;11.23;5.53;;;3.50;99.90;;;;;;5059480;28;20079;-78
2022/03/20 02:27:23;;;;;;;8.95;5.85;;;2.30;99.90;;;;;;5051503;28;20075;-79
2022/03/20 02:29:52;;;;;;;9.85;6.00;;;4.00;99.90;;;;;;5050932;28;20048;-77
2022/03/20 02:32:23;;;;;;;10.48;5.45;;;4.00;99.90;;;;;;5093703;28;20487;-77
2022/03/20 02:34:50;;;;;;;8.95;6.00;;;3.90;99.90;;;;;;5051308;28;20451;-77
2022/03/20 02:37:22;;;;;;;9.68;6.18;;;3.40;99.90;;;;;;5050953;28;20041;-79
2022/03/20 02:39:49;;;;;;;8.60;5.57;;;3.60;99.90;;;;;;5069469;28;20036;-81
2022/03/20 02:42:16;;;;;;;13.82;6.20;;;3.80;99.90;;;;;;5067838;28;20059;-78
2022/03/20 02:44:49;;;;;;;8.80;5.43;;;3.70;99.90;;;;;;5067840;28;20037;-78
2022/03/20 02:47:19;;;;;;;10.43;6.47;;;3.50;99.90;;;;;;5068121;28;20048;-77
2022/03/20 02:49:46;;;;;;;10.90;6.35;;;3.60;99.90;;;;;;5067697;28;20421;-79
2022/03/20 02:52:12;;;;;;;12.45;7.20;;;3.80;99.90;;;;;;5067534;28;20063;-77
2022/03/20 02:54:37;;;;;;;12.85;6.10;;;3.80;99.90;;;;;;5050979;28;20036;-78
2022/03/20 02:57:08;;;;;;;13.00;6.07;;;3.80;99.90;;;;;;5066299;28;20405;-77
2022/03/20 02:59:34;;;;;;;13.48;6.93;;;3.50;99.90;;;;;;5051579;28;20051;-78
2022/03/20 03:02:01;;;;;;;10.75;6.65;;;3.30;99.90;;;;;;5067475;28;20127;-77
2022/03/20 03:04:27;;;;;;;8.77;6.85;;;3.60;99.90;;;;;;5066846;28;20036;-81
2022/03/20 03:06:52;;;;;;;13.68;7.57;;;3.30;99.90;;;;;;5050617;28;20488;-77
2022/03/20 03:12:04;;;;;;;10.32;6.32;;;3.20;99.90;;;;;;5066226;28;20532;-77
2022/03/20 03:17:27;;;;;;;12.98;7.20;;;3.40;99.90;;;;;;5056845;28;20043;-77
2022/03/20 03:19:54;;;;;;;10.82;7.30;;;6.30;99.90;;;;;;5066991;28;20098;-79
2022/03/20 03:22:26;;;;;;;14.45;7.70;;;5.20;99.90;;;;;;5059768;28;20503;-77
2022/03/20 03:24:56;;;;;;;10.60;7.38;;;3.60;99.90;;;;;;5049927;28;20051;-77
2022/03/20 03:27:21;;;;;;;14.40;7.85;;;3.60;99.90;;;;;;5043082;28;20373;-77
2022/03/20 03:29:47;;;;;;;17.08;7.75;;;3.10;99.90;;;;;;5050521;28;20075;-77
2022/03/20 03:32:13;;;;;;;16.75;8.85;;;3.20;99.90;;;;;;5066194;28;20048;-81
2022/03/20 03:37:23;;;;;;;15.82;8.18;;;3.00;99.90;;;;;;5061057;28;20040;-77
2022/03/20 03:39:49;;;;;;;12.63;7.68;;;3.50;99.90;;;;;;5049559;28;20044;-77
2022/03/20 03:42:15;;;;;;;12.63;8.30;;;2.80;99.90;;;;;;5049500;28;20044;-77
2022/03/20 03:44:41;;;;;;;12.98;9.05;;;3.00;99.90;;;;;;5067354;28;20032;-77
2022/03/20 03:47:07;;;;;;;12.40;7.93;;;3.40;99.90;;;;;;5065748;28;20051;-77
2022/03/20 03:49:33;;;;;;;12.80;8.73;;;4.80;99.90;;;;;;5067244;28;20049;-77
2022/03/20 03:52:00;;;;;;;12.23;8.25;;;3.30;99.90;;;;;;5066662;28;20045;-77
2022/03/20 03:54:26;;;;;;;12.45;8.20;;;3.00;99.90;;;;;;5049954;28;20041;-81
2022/03/20 03:56:52;;;;;;;14.20;8.90;;;2.80;99.90;;;;;;5068576;28;20439;-77
2022/03/20 03:59:17;;;;;;;12.88;8.45;;;2.70;99.90;;;;;;5049987;28;20446;-78
2022/03/20 04:01:43;;;;;;;18.35;9.50;;;3.30;99.90;;;;;;5067334;28;20048;-77
2022/03/20 04:04:09;;;;;;;14.32;8.45;;;3.30;99.90;;;;;;5033822;28;20044;-78
2022/03/20 04:06:35;;;;;;;16.52;9.20;;;3.10;99.90;;;;;;5067107;28;20507;-78
2022/03/20 04:09:00;;;;;;;21.67;9.60;;;2.80;99.90;;;;;;5065510;28;20485;-77
2022/03/20 04:11:27;;;;;;;12.68;9.05;;;3.30;99.90;;;;;;5067045;28;20090;-77
2022/03/20 04:13:52;;;;;;;13.68;8.75;;;3.20;99.90;;;;;;5067078;28;20052;-77
2022/03/20 04:16:18;;;;;;;15.05;8.77;;;2.80;99.90;;;;;;5049764;28;20150;-78
2022/03/20 04:18:44;;;;;;;14.80;9.75;;;3.20;99.90;;;;;;5066815;28;20039;-78
2022/03/20 04:21:10;;;;;;;15.73;9.60;;;2.70;99.90;;;;;;5049244;28;20093;-78
2022/03/20 04:23:49;;;;;;;16.30;9.75;;;3.60;99.90;;;;;;5066668;28;20075;-82
2022/03/20 04:26:22;;;;;;;15.65;9.45;;;2.70;99.90;;;;;;5050033;28;20083;-78
2022/03/20 04:28:50;;;;;;;14.52;10.18;;;2.80;99.90;;;;;;5049519;28;20434;-79
2022/03/20 04:31:17;;;;;;;14.55;9.73;;;3.20;99.90;;;;;;5049494;28;20327;-78
2022/03/20 04:33:48;;;;;;;17.30;9.75;;;3.10;99.90;;;;;;5066300;28;20056;-80
2022/03/20 04:36:15;;;;;;;14.32;9.98;;;2.50;99.90;;;;;;5066006;28;20040;-78
2022/03/20 04:38:41;;;;;;;16.65;9.93;;;2.60;99.90;;;;;;5068230;28;20074;-78
2022/03/20 04:41:07;;;;;;;16.50;10.13;;;2.90;99.90;;;;;;5065924;28;20049;-79
2022/03/20 04:43:33;;;;;;;14.80;9.82;;;2.80;99.90;;;;;;5065541;28;20041;-78
2022/03/20 04:45:59;;;;;;;15.32;10.48;;;2.80;99.90;;;;;;5067316;28;20178;-80
2022/03/20 04:59:23;;;;;;;18.48;9.80;;;2.30;99.90;;;;;;5066784;28;20095;-78
2022/03/20 05:01:49;;;;;;;18.75;10.75;;;5.20;99.90;;;;;;5066266;28;20036;-78
2022/03/20 05:04:15;;;;;;;19.38;10.43;;;2.90;99.90;;;;;;5065438;28;20064;-78
2022/03/20 05:06:43;;;;;;;18.05;10.00;;;2.30;99.90;;;;;;5066822;28;20075;-78
2022/03/20 05:14:37;;;;;;;17.58;10.85;;;2.70;99.90;;;;;;5059690;28;20048;-79
2022/03/20 05:17:04;;;;;;;18.02;11.45;;;2.60;99.90;;;;;;5048771;28;20390;-78
2022/03/20 05:19:33;;;;;;;15.60;10.52;;;2.80;99.90;;;;;;5067297;28;20107;-78
2022/03/20 05:21:58;;;;;;;16.52;11.25;;;2.80;99.90;;;;;;5068900;28;20044;-77
2022/03/20 05:24:24;;;;;;;17.27;11.55;;;2.70;99.90;;;;;;5052656;28;20037;-78
2022/03/20 05:26:53;;;;;;;18.08;11.45;;;2.10;99.90;;;;;;5070833;28;20050;-77
2022/03/20 05:29:19;;;;;;;15.85;11.80;;;2.30;99.90;;;;;;5069566;28;20056;-77
2022/03/20 05:31:46;;;;;;;17.67;10.98;;;2.50;99.90;;;;;;5068478;28;20592;-77
2022/03/20 05:34:12;;;;;;;22.70;11.63;;;2.40;99.90;;;;;;5068921;28;20398;-77
2022/03/20 05:36:38;;;;;;;13.77;9.98;;;2.10;99.90;;;;;;5069809;28;20044;-77
2022/03/20 05:39:04;;;;;;;15.20;10.82;;;2.30;99.90;;;;;;5068495;28;20040;-77
2022/03/20 05:41:49;;;;;;;19.73;11.13;;;2.30;99.90;;;;;;5069544;28;20135;-77
2022/03/20 05:44:20;;;;;;;17.73;10.88;;;2.50;99.90;;;;;;5052667;28;20036;-77
2022/03/20 05:46:48;;;;;;;17.35;11.82;;;2.50;99.90;;;;;;5051654;28;20044;-77
2022/03/20 05:49:24;;;;;;;16.80;10.45;;;2.70;99.90;;;;;;5069428;28;20112;-78
2022/03/20 05:51:50;;;;;;;16.45;11.45;;;2.60;99.90;;;;;;5052191;28;20056;-78
2022/03/20 05:54:19;;;;;;;19.77;11.85;;;2.30;99.90;;;;;;5068373;28;20036;-77
2022/03/20 05:59:29;;;;;;;16.20;11.93;;;4.80;99.90;;;;;;5061684;28;20044;-78
2022/03/20 06:01:55;;;;;;;18.40;11.65;;;2.30;99.90;;;;;;5068612;28;20047;-77
2022/03/20 06:04:21;;;;;;;20.92;12.52;;;2.60;99.90;;;;;;5052222;28;20119;-77
2022/03/20 06:06:50;;;;;;;15.77;11.48;;;2.60;99.90;;;;;;5051746;28;20040;-77
2022/03/20 06:09:16;;;;;;;16.55;11.73;;;2.90;99.90;;;;;;5052313;28;20056;-77
2022/03/20 06:11:42;;;;;;;15.82;11.57;;;2.50;99.90;;;;;;5068910;28;20511;-80
2022/03/20 06:14:08;;;;;;;16.05;12.02;;;2.60;99.90;;;;;;5069072;28;20062;-77
2022/03/20 06:16:35;;;;;;;21.25;12.43;;;2.40;99.90;;;;;;5069205;28;20044;-77
2022/03/20 06:19:02;;;;;;;18.83;12.18;;;2.50;99.90;;;;;;5051605;28;20048;-77
2022/03/20 06:21:27;;;;;;;20.67;12.82;;;2.00;99.90;;;;;;5067927;28;20036;-77
2022/03/20 06:23:54;;;;;;;20.77;12.20;;;2.00;99.90;;;;;;5068345;28;20047;-77
2022/03/20 06:26:20;;;;;;;19.42;12.25;;;3.20;99.90;;;;;;5068569;28;20040;-77
2022/03/20 06:28:48;;;;;;;21.92;13.02;;;2.40;99.90;;;;;;5051284;28;20418;-78
2022/03/20 06:31:13;;;;;;;19.20;12.40;;;2.60;99.90;;;;;;5050788;28;20061;-77
2022/03/20 06:33:40;;;;;;;22.52;13.38;;;4.30;99.90;;;;;;5051455;28;20047;-77
2022/03/20 06:36:07;;;;;;;19.17;12.63;;;2.50;99.90;;;;;;5067615;28;20048;-78
2022/03/20 06:38:35;;;;;;;20.35;13.20;;;2.40;99.90;;;;;;5060782;28;20068;-77
2022/03/20 06:41:04;;;;;;;17.67;12.90;;;2.50;99.90;;;;;;5067323;28;20106;-77
2022/03/20 06:43:29;;;;;;;19.52;13.05;;;2.20;99.90;;;;;;5050883;28;20052;-77
2022/03/20 06:45:56;;;;;;;21.45;12.93;;;2.10;99.90;;;;;;5068392;28;20488;-77
2022/03/20 06:48:22;;;;;;;19.63;14.02;;;2.10;99.90;;;;;;5069346;28;20056;-78
2022/03/20 06:50:48;;;;;;;21.17;13.77;;;2.50;99.90;;;;;;5067440;28;20316;-79
2022/03/20 06:53:13;;;;;;;21.05;12.82;;;2.60;99.90;;;;;;5050573;28;20048;-78
2022/03/20 06:55:39;;;;;;;24.17;15.23;;;2.80;99.90;;;;;;5068628;28;20468;-78
2022/03/20 06:58:05;;;;;;;17.92;12.98;;;2.10;99.90;;;;;;5067328;28;20131;-77
2022/03/20 07:00:31;;;;;;;24.23;14.35;;;2.60;99.90;;;;;;5068053;28;20166;-78
2022/03/20 07:02:58;;;;;;;19.25;13.23;;;2.30;99.90;;;;;;5049853;28;20052;-78
2022/03/20 07:05:24;;;;;;;21.48;13.93;;;2.50;99.90;;;;;;5051664;28;20032;-78
2022/03/20 07:07:50;;;;;;;28.85;13.95;;;2.70;99.90;;;;;;5051128;28;20127;-79
2022/03/20 07:10:21;;;;;;;20.45;14.10;;;2.60;99.90;;;;;;5068045;28;20223;-78
2022/03/20 07:12:46;;;;;;;21.67;14.02;;;3.10;99.90;;;;;;5067566;28;20095;-78
2022/03/20 07:15:12;;;;;;;22.00;13.27;;;2.80;99.90;;;;;;5067269;28;20033;-78
2022/03/20 07:17:38;;;;;;;18.75;13.63;;;2.70;99.90;;;;;;5050161;28;20522;-78
2022/03/20 07:20:11;;;;;;;21.08;13.77;;;2.40;99.90;;;;;;5050239;28;20407;-79
2022/03/20 07:22:36;;;;;;;21.00;13.20;;;3.00;99.90;;;;;;5068813;28;20083;-78
2022/03/20 07:30:35;;;;;;;23.17;14.88;;;2.60;99.90;;;;;;5068934;28;20052;-78
2022/03/20 07:33:01;;;;;;;18.73;13.35;;;3.00;99.90;;;;;;5065650;28;20134;-82
2022/03/20 07:35:27;;;;;;;20.50;14.40;;;3.20;99.90;;;;;;5050619;28;20498;-79
2022/03/20 07:37:53;;;;;;;20.75;13.75;;;3.20;99.90;;;;;;5067683;28;20392;-79
2022/03/20 07:40:18;;;;;;;17.25;13.02;;;3.00;99.90;;;;;;5068105;28;20129;-79
2022/03/20 07:42:44;;;;;;;20.50;14.27;;;2.90;99.90;;;;;;5066834;28;20044;-79
2022/03/20 07:45:09;;;;;;;22.77;15.68;;;3.00;99.90;;;;;;5066073;28;20314;-80
2022/03/20 07:47:35;;;;;;;19.25;13.48;;;3.80;99.90;;;;;;5050755;28;20037;-79
2022/03/20 07:50:02;;;;;;;20.23;12.32;;;3.40;99.90;;;;;;5066690;28;20047;-78
2022/03/20 07:52:28;;;;;;;20.40;13.40;;;3.30;99.90;;;;;;5066006;28;20096;-77
2022/03/20 07:54:54;;;;;;;20.75;12.65;;;3.40;99.90;;;;;;5049948;28;20072;-77
2022/03/20 07:57:20;;;;;;;18.92;13.80;;;3.60;99.90;;;;;;5066977;28;20068;-77
2022/03/20 07:59:46;;;;;;;19.55;13.48;;;3.60;99.90;;;;;;5029667;28;20087;-77
2022/03/20 08:02:12;;;;;;;17.75;12.43;;;3.80;99.90;;;;;;5096318;28;20051;-77
2022/03/20 08:04:38;;;;;;;22.48;13.98;;;3.30;99.90;;;;;;5067102;28;20033;-80
2022/03/20 08:07:04;;;;;;;20.30;13.90;;;3.80;99.90;;;;;;5049351;28;20048;-79
2022/03/20 08:09:30;;;;;;;18.38;14.00;;;4.00;99.90;;;;;;5050368;28;20402;-79
2022/03/20 08:11:56;;;;;;;21.90;14.23;;;4.00;99.90;;;;;;5049795;28;20139;-79
2022/03/20 08:14:23;;;;;;;19.35;13.35;;;3.90;99.90;;;;;;5066211;28;20557;-79
2022/03/20 08:16:50;;;;;;;19.65;13.95;;;3.80;99.90;;;;;;5067076;28;20454;-78
2022/03/20 08:19:16;;;;;;;19.63;13.75;;;4.20;99.90;;;;;;5049655;28;20066;-78
2022/03/20 08:21:43;;;;;;;22.60;14.05;;;3.90;99.90;;;;;;5049081;28;20051;-79
2022/03/20 08:24:09;;;;;;;23.63;14.65;;;3.90;99.90;;;;;;5067610;28;20094;-78
2022/03/20 08:26:44;;;;;;;24.10;15.05;;;3.70;99.90;;;;;;5042852;28;20052;-78
2022/03/20 08:29:12;;;;;;;25.00;15.20;;;4.00;99.90;;;;;;5067197;28;20037;-79
2022/03/20 08:31:43;;;;;;;19.58;14.10;;;4.40;99.90;;;;;;5066268;28;20135;-79
2022/03/20 08:34:09;;;;;;;21.90;14.45;;;6.40;99.90;;;;;;5066006;28;20048;-79
2022/03/20 08:36:35;;;;;;;21.67;14.45;;;3.90;99.90;;;;;;5067736;28;20040;-78
2022/03/20 08:39:01;;;;;;;20.13;13.70;;;4.50;99.90;;;;;;5049636;28;20123;-79
2022/03/20 08:41:26;;;;;;;21.80;15.10;;;4.50;99.90;;;;;;5065316;28;20051;-78
2022/03/20 08:43:52;;;;;;;24.27;15.90;;;4.20;99.90;;;;;;5039823;28;20123;-81
2022/03/20 08:46:17;;;;;;;19.30;13.73;;;4.40;99.90;;;;;;5045028;28;20037;-81
2022/03/20 08:48:43;;;;;;;22.10;14.70;;;4.70;99.90;;;;;;5039167;28;20045;-78
2022/03/20 08:51:09;;;;;;;19.55;14.60;;;4.90;99.90;;;;;;5057072;28;20507;-79
2022/03/20 08:53:35;;;;;;;20.15;15.15;;;5.30;99.90;;;;;;5060037;28;20237;-79
2022/03/20 08:56:00;;;;;;;22.38;14.75;;;4.40;99.90;;;;;;5052301;28;20048;-79
2022/03/20 08:58:26;;;;;;;22.05;15.45;;;4.90;99.90;;;;;;5071709;28;20064;-79
2022/03/20 09:00:52;;;;;;;22.98;15.30;;;4.90;99.90;;;;;;5070104;28;20068;-79
2022/03/20 09:03:17;;;;;;;21.92;14.50;;;5.20;99.90;;;;;;5069056;28;20395;-79
2022/03/20 09:05:44;;;;;;;20.05;14.45;;;7.00;99.90;;;;;;5071284;28;20059;-79
2022/03/20 09:08:09;;;;;;;25.27;16.23;;;5.30;99.90;;;;;;5070605;28;20048;-79
2022/03/20 09:10:35;;;;;;;24.25;15.75;;;5.40;99.90;;;;;;5069740;28;20511;-79
2022/03/20 09:13:01;;;;;;;23.20;16.35;;;5.00;99.90;;;;;;5070489;28;20083;-79
2022/03/20 09:15:28;;;;;;;25.67;17.15;;;5.40;99.90;;;;;;5070301;28;20453;-78
2022/03/20 09:20:40;;;;;;;25.17;15.32;;;5.40;99.90;;;;;;5071150;28;20403;-79
2022/03/20 09:23:07;;;;;;;20.60;15.35;;;5.50;99.70;;;;;;5070134;28;20044;-80
2022/03/20 09:25:33;;;;;;;24.35;15.88;;;5.70;99.90;;;;;;5019516;28;20028;-79
2022/03/20 09:28:04;;;;;;;22.25;15.75;;;5.70;99.90;;;;;;5070766;28;20387;-79
2022/03/20 09:30:30;;;;;;;26.02;16.02;;;5.90;99.90;;;;;;5044550;28;20070;-80
2022/03/20 09:32:55;;;;;;;28.15;16.17;;;5.90;99.90;;;;;;5052330;28;20047;-79
2022/03/20 09:35:21;;;;;;;23.63;15.63;;;6.00;99.90;;;;;;5052983;28;20037;-79
2022/03/20 09:37:47;;;;;;;26.98;16.83;;;6.10;99.90;;;;;;5070213;28;20190;-78
2022/03/20 09:40:13;;;;;;;26.20;15.07;;;6.20;99.40;;;;;;5069698;28;20050;-79
2022/03/20 09:42:40;;;;;;;24.80;15.73;;;6.30;98.00;;;;;;5069314;28;20483;-78
2022/03/20 09:45:09;;;;;;;24.65;16.42;;;6.40;98.70;;;;;;5068518;28;20056;-79
2022/03/20 09:47:39;;;;;;;24.83;17.77;;;6.50;97.80;;;;;;5053031;28;20047;-79
2022/03/20 09:50:06;;;;;;;24.52;16.75;;;6.50;97.30;;;;;;5052292;28;20480;-78
2022/03/20 09:52:33;;;;;;;21.20;15.77;;;6.60;97.10;;;;;;5069694;28;20049;-78
2022/03/20 09:54:59;;;;;;;23.08;16.38;;;6.60;96.30;;;;;;5069171;28;20346;-79
2022/03/20 09:57:29;;;;;;;25.73;18.02;;;6.70;95.50;;;;;;5069575;28;20045;-79
2022/03/20 09:59:56;;;;;;;25.17;16.25;;;6.80;95.50;;;;;;5061531;28;20344;-80
2022/03/20 10:02:26;;;;;;;24.48;16.40;;;6.80;95.50;;;;;;5068959;28;20047;-80
2022/03/20 10:04:53;;;;;;;20.77;16.45;;;6.90;95.30;;;;;;5069473;28;20043;-80
2022/03/20 10:07:28;;;;;;;24.10;17.27;;;6.90;95.80;;;;;;5068932;28;20062;-79
2022/03/20 10:10:08;;;;;;;24.95;16.23;;;6.90;95.10;;;;;;5052816;28;20488;-79
2022/03/20 10:12:35;;;;;;;25.42;16.90;;;7.10;94.50;;;;;;5069230;28;20445;-79
2022/03/20 10:15:02;;;;;;;23.88;16.73;;;7.10;94.30;;;;;;5051930;28;20123;-80
2022/03/20 10:17:28;;;;;;;25.15;17.63;;;7.20;94.80;;;;;;5068921;28;20388;-80
2022/03/20 10:20:11;;;;;;;23.40;16.83;;;7.30;94.30;;;;;;5068207;28;20045;-79
2022/03/20 10:22:36;;;;;;;22.30;16.30;;;8.30;94.30;;;;;;5069772;28;20052;-81
2022/03/20 10:25:02;;;;;;;22.95;16.83;;;7.40;94.00;;;;;;5068602;28;20044;-79
2022/03/20 10:27:28;;;;;;;23.65;16.92;;;7.50;93.20;;;;;;5067922;28;20428;-81
2022/03/20 10:30:00;;;;;;;26.58;17.73;;;7.60;93.40;;;;;;5051600;28;20044;-79
2022/03/20 10:32:25;;;;;;;21.80;17.17;;;7.70;93.40;;;;;;5051663;28;20054;-80
2022/03/20 10:34:53;;;;;;;23.58;17.17;;;9.70;93.20;;;;;;5067825;28;20036;-80
2022/03/20 10:37:40;;;;;;;26.52;17.27;;;7.80;92.70;;;;;;5069857;28;20032;-80
2022/03/20 10:40:12;;;;;;;23.83;16.77;;;7.80;92.40;;;;;;5060818;28;20037;-80
2022/03/20 10:42:37;;;;;;;25.30;16.92;;;7.90;91.80;;;;;;5068189;28;20052;-79
2022/03/20 10:45:06;;;;;;;35.30;18.83;;;8.00;91.90;;;;;;5069151;28;20229;-80
2022/03/20 10:47:31;;;;;;;25.75;18.88;;;8.00;92.10;;;;;;5068671;28;20040;-79
2022/03/20 10:50:09;;;;;;;25.00;17.52;;;8.10;91.20;;;;;;5067152;28;20419;-79
2022/03/20 10:52:36;;;;;;;24.95;17.20;;;8.20;91.20;;;;;;5068395;28;20036;-80
2022/03/20 10:55:10;;;;;;;27.35;17.88;;;8.30;91.20;;;;;;5042731;28;20173;-81
2022/03/20 10:57:36;;;;;;;23.60;17.98;;;8.40;90.40;;;;;;5069287;28;20354;-80
2022/03/20 11:00:10;;;;;;;30.15;18.85;;;8.50;90.80;;;;;;5068793;28;20391;-80
2022/03/20 11:02:39;;;;;;;27.45;18.30;;;8.60;90.50;;;;;;5066867;28;20051;-80
2022/03/20 11:05:05;;;;;;;25.05;18.10;;;8.70;90.10;;;;;;5069099;28;20344;-80
2022/03/20 11:07:31;;;;;;;24.58;17.42;;;8.70;90.70;;;;;;5069207;28;20044;-79
2022/03/20 11:09:57;;;;;;;24.88;18.35;;;8.80;90.00;;;;;;5066696;28;20121;-80
2022/03/20 11:12:26;;;;;;;23.77;18.35;;;8.90;90.10;;;;;;5069566;28;20087;-81
2022/03/20 11:14:54;;;;;;;28.20;19.02;;;9.00;88.50;;;;;;5067898;28;20123;-80
2022/03/20 11:17:23;;;;;;;28.88;18.52;;;9.10;87.50;;;;;;5066849;28;20125;-80
2022/03/20 11:19:54;;;;;;;24.90;19.13;;;9.10;87.10;;;;;;5067550;28;20043;-80
2022/03/20 11:22:21;;;;;;;31.27;20.38;;;9.20;87.80;;;;;;5067235;28;20068;-82
2022/03/20 11:24:50;;;;;;;24.02;19.10;;;9.30;87.50;;;;;;5050010;28;20059;-79
2022/03/20 11:27:23;;;;;;;27.95;19.77;;;9.40;84.70;;;;;;5067733;28;20480;-81
2022/03/20 11:30:05;;;;;;;26.67;18.50;;;9.50;87.30;;;;;;5068637;28;20045;-81
2022/03/20 11:32:32;;;;;;;30.08;18.90;;;9.70;85.70;;;;;;5067653;28;20046;-81
2022/03/20 11:34:58;;;;;;;29.55;20.13;;;9.80;85.80;;;;;;5050458;28;20055;-80
2022/03/20 11:37:45;;;;;;;26.25;18.75;;;10.80;84.50;;;;;;5067193;28;20135;-79
2022/03/20 11:40:13;;;;;;;28.80;19.40;;;10.00;82.60;;;;;;5061095;28;20048;-81
2022/03/20 11:42:40;;;;;;;23.95;18.90;;;10.00;83.50;;;;;;5050275;28;20048;-81
2022/03/20 11:45:06;;;;;;;32.25;19.65;;;10.10;83.90;;;;;;5059441;28;20094;-82
2022/03/20 11:47:33;;;;;;;27.38;19.25;;;10.20;83.50;;;;;;5067533;28;20040;-81
2022/03/20 11:50:19;;;;;;;23.73;18.35;;;10.30;83.50;;;;;;5066872;28;20094;-80
2022/03/20 11:52:58;;;;;;;25.00;20.02;;;10.40;82.10;;;;;;5065868;28;20040;-82
2022/03/20 11:55:26;;;;;;;27.55;19.13;;;10.50;81.80;;;;;;5067207;28;20041;-83
2022/03/20 11:57:52;;;;;;;25.02;19.55;;;10.50;81.10;;;;;;5067376;28;20048;-80
2022/03/20 12:00:24;;;;;;;30.67;20.80;;;10.50;80.80;;;;;;5066363;28;20068;-80
2022/03/20 12:02:52;;;;;;;29.27;20.02;;;10.60;79.20;;;;;;5066482;28;20048;-80
2022/03/20 12:05:27;;;;;;;27.85;18.98;;;10.70;80.20;;;;;;5066613;28;20047;-80
2022/03/20 12:08:29;;;;;;;28.20;19.75;;;10.70;80.30;;;;;;5067084;28;20158;-80
2022/03/20 12:11:04;;;;;;;26.98;18.73;;;10.70;79.00;;;;;;5067858;28;20055;-80
2022/03/20 12:13:50;;;;;;;26.77;18.73;;;10.80;78.30;;;;;;5067408;28;20039;-80
2022/03/20 12:16:44;;;;;;;29.80;19.08;;;11.20;78.30;;;;;;5092908;28;20127;-80
2022/03/20 12:19:24;;;;;;;27.05;18.90;;;10.90;78.60;;;;;;5041349;28;20056;-80
2022/03/20 12:22:03;;;;;;;30.60;19.42;;;10.90;79.20;;;;;;5060278;28;20131;-81
2022/03/20 12:24:34;;;;;;;29.17;20.20;;;10.90;77.40;;;;;;5068337;28;20113;-80
2022/03/20 12:27:25;;;;;;;28.23;19.38;;;10.90;76.60;;;;;;5048998;28;20055;-81
2022/03/20 12:30:21;;;;;;;28.15;20.02;;;11.00;77.80;;;;;;5070278;28;20072;-81
2022/03/20 12:32:47;;;;;;;28.90;18.75;;;11.00;77.50;;;;;;5067462;28;20052;-81
2022/03/20 12:35:15;;;;;;;26.35;20.45;;;11.20;77.80;;;;;;5071043;28;20044;-80
2022/03/20 12:37:42;;;;;;;27.02;20.33;;;11.30;77.00;;;;;;5072290;28;20040;-81
2022/03/20 12:40:23;;;;;;;21.85;18.30;;;11.40;77.00;;;;;;5071234;28;20090;-81
2022/03/20 12:42:56;;;;;;;27.20;19.20;;;11.50;76.50;;;;;;5069902;28;20051;-80
2022/03/20 12:45:23;;;;;;;24.33;19.33;;;11.40;75.20;;;;;;5070744;28;20541;-81
2022/03/20 12:47:53;;;;;;;25.70;19.58;;;11.50;76.40;;;;;;5069476;28;20119;-80
2022/03/20 12:50:22;;;;;;;25.80;18.83;;;11.60;75.30;;;;;;5070458;28;20036;-81
2022/03/20 12:53:02;;;;;;;23.30;18.42;;;11.70;76.40;;;;;;5068943;28;20582;-81
2022/03/20 12:55:27;;;;;;;25.48;19.00;;;11.80;75.90;;;;;;5065717;28;20059;-81
2022/03/20 12:57:53;;;;;;;23.50;18.92;;;11.90;75.10;;;;;;5070561;28;20044;-81
2022/03/20 13:00:22;;;;;;;26.50;18.83;;;11.90;74.80;;;;;;5068901;28;20040;-79
2022/03/20 13:03:07;;;;;;;24.40;19.08;;;11.80;73.40;;;;;;5065009;28;20052;-81
2022/03/20 13:05:38;;;;;;;27.90;19.20;;;11.70;74.30;;;;;;5062003;28;20397;-80
2022/03/20 13:08:05;;;;;;;25.38;18.88;;;11.70;75.10;;;;;;5051892;28;20151;-80
2022/03/20 13:10:34;;;;;;;27.73;19.42;;;11.70;75.40;;;;;;5069964;28;20044;-81
2022/03/20 13:13:03;;;;;;;26.70;19.50;;;11.90;75.00;;;;;;5070471;28;20151;-82
2022/03/20 13:15:31;;;;;;;23.98;19.20;;;11.90;75.10;;;;;;5054322;28;20487;-81
2022/03/20 13:17:58;;;;;;;25.88;19.80;;;11.80;74.60;;;;;;5051643;28;20056;-81
2022/03/20 13:20:28;;;;;;;26.67;18.48;;;11.70;73.60;;;;;;5065871;28;20086;-82
2022/03/20 13:22:58;;;;;;;24.23;19.13;;;11.70;74.10;;;;;;5063143;28;20055;-81
2022/03/20 13:25:26;;;;;;;26.40;19.88;;;11.80;75.10;;;;;;5052479;28;20124;-82